sensor_id;sensor_type;location;lat;lon;timestamp;P1;durP1;ratioP1;P2;durP2;ratioP2
20122;SDS011;10222;50.848;4.336;2024-03-22T00:00:32;40.97;;;22.00;;
20122;SDS011;10222;50.848;4.336;2024-03-22T00:02:58;37.80;;;21.87;;
20122;SDS011;10222;50.848;4.336;2024-03-22T00:05:24;36.13;;;19.87;;
20122;SDS011;10222;50.848;4.336;2024-03-22T00:07:51;40.33;;;20.67;;
20122;SDS011;10222;50.848;4.336;2024-03-22T00:10:17;37.07;;;20.13;;
20122;SDS011;10222;50.848;4.336;2024-03-22T00:12:43;34.50;;;19.80;;
20122;SDS011;10222;50.848;4.336;2024-03-22T00:15:09;35.07;;;20.00;;
20122;SDS011;10222;50.848;4.336;2024-03-22T00:17:35;31.63;;;18.30;;
20122;SDS011;10222;50.848;4.336;2024-03-22T00:20:01;34.80;;;19.10;;
20122;SDS011;10222;50.848;4.336;2024-03-22T00:22:27;33.53;;;18.80;;
20122;SDS011;10222;50.848;4.336;2024-03-22T00:24:53;29.77;;;18.37;;
20122;SDS011;10222;50.848;4.336;2024-03-22T00:27:19;33.77;;;18.23;;
20122;SDS011;10222;50.848;4.336;2024-03-22T00:29:45;36.27;;;19.40;;
20122;SDS011;10222;50.848;4.336;2024-03-22T00:32:11;32.77;;;18.83;;
20122;SDS011;10222;50.848;4.336;2024-03-22T00:34:37;35.80;;;18.57;;
20122;SDS011;10222;50.848;4.336;2024-03-22T00:37:03;35.30;;;19.90;;
20122;SDS011;10222;50.848;4.336;2024-03-22T00:39:29;34.30;;;19.93;;
20122;SDS011;10222;50.848;4.336;2024-03-22T00:41:55;34.10;;;20.23;;
20122;SDS011;10222;50.848;4.336;2024-03-22T00:44:21;35.43;;;19.50;;
20122;SDS011;10222;50.848;4.336;2024-03-22T00:46:47;39.70;;;20.77;;
20122;SDS011;10222;50.848;4.336;2024-03-22T00:49:15;39.87;;;21.83;;
20122;SDS011;10222;50.848;4.336;2024-03-22T00:51:44;37.40;;;20.60;;
20122;SDS011;10222;50.848;4.336;2024-03-22T00:56:44;33.67;;;19.53;;
20122;SDS011;10222;50.848;4.336;2024-03-22T00:59:10;36.37;;;20.40;;
20122;SDS011;10222;50.848;4.336;2024-03-22T01:01:36;33.77;;;19.90;;
20122;SDS011;10222;50.848;4.336;2024-03-22T01:04:04;35.90;;;20.03;;
20122;SDS011;10222;50.848;4.336;2024-03-22T01:08:59;34.67;;;19.70;;
20122;SDS011;10222;50.848;4.336;2024-03-22T01:11:27;37.23;;;21.13;;
20122;SDS011;10222;50.848;4.336;2024-03-22T01:13:55;36.80;;;19.90;;
20122;SDS011;10222;50.848;4.336;2024-03-22T01:16:22;34.87;;;20.27;;
20122;SDS011;10222;50.848;4.336;2024-03-22T01:18:49;34.63;;;19.83;;
20122;SDS011;10222;50.848;4.336;2024-03-22T01:21:16;33.40;;;19.67;;
20122;SDS011;10222;50.848;4.336;2024-03-22T01:23:44;35.17;;;20.80;;
20122;SDS011;10222;50.848;4.336;2024-03-22T01:26:13;34.80;;;20.17;;
20122;SDS011;10222;50.848;4.336;2024-03-22T01:31:11;35.27;;;20.10;;
20122;SDS011;10222;50.848;4.336;2024-03-22T01:33:40;32.90;;;19.63;;
20122;SDS011;10222;50.848;4.336;2024-03-22T01:36:07;36.40;;;20.23;;
20122;SDS011;10222;50.848;4.336;2024-03-22T01:38:35;37.43;;;20.53;;
20122;SDS011;10222;50.848;4.336;2024-03-22T01:41:02;37.67;;;21.37;;
20122;SDS011;10222;50.848;4.336;2024-03-22T01:43:30;35.03;;;19.80;;
20122;SDS011;10222;50.848;4.336;2024-03-22T01:45:56;41.00;;;21.50;;
20122;SDS011;10222;50.848;4.336;2024-03-22T01:48:29;41.50;;;20.40;;
20122;SDS011;10222;50.848;4.336;2024-03-22T01:50:55;39.30;;;20.10;;
20122;SDS011;10222;50.848;4.336;2024-03-22T01:55:53;36.90;;;18.70;;
20122;SDS011;10222;50.848;4.336;2024-03-22T01:58:25;36.40;;;18.17;;
20122;SDS011;10222;50.848;4.336;2024-03-22T02:00:55;34.87;;;19.37;;
20122;SDS011;10222;50.848;4.336;2024-03-22T02:03:24;35.03;;;19.17;;
20122;SDS011;10222;50.848;4.336;2024-03-22T02:08:20;33.23;;;18.73;;
20122;SDS011;10222;50.848;4.336;2024-03-22T02:10:52;34.70;;;19.50;;
20122;SDS011;10222;50.848;4.336;2024-03-22T02:13:20;36.93;;;19.13;;
20122;SDS011;10222;50.848;4.336;2024-03-22T02:15:46;34.47;;;18.93;;
20122;SDS011;10222;50.848;4.336;2024-03-22T02:18:12;34.87;;;19.37;;
20122;SDS011;10222;50.848;4.336;2024-03-22T02:20:38;32.47;;;18.63;;
20122;SDS011;10222;50.848;4.336;2024-03-22T02:23:06;37.90;;;18.53;;
20122;SDS011;10222;50.848;4.336;2024-03-22T02:25:35;37.23;;;20.27;;
20122;SDS011;10222;50.848;4.336;2024-03-22T02:28:05;39.90;;;19.57;;
20122;SDS011;10222;50.848;4.336;2024-03-22T02:30:34;37.30;;;18.90;;
20122;SDS011;10222;50.848;4.336;2024-03-22T02:33:03;39.43;;;18.90;;
20122;SDS011;10222;50.848;4.336;2024-03-22T02:35:31;33.37;;;18.30;;
20122;SDS011;10222;50.848;4.336;2024-03-22T02:37:57;32.93;;;18.70;;
20122;SDS011;10222;50.848;4.336;2024-03-22T02:40:26;36.23;;;19.77;;
20122;SDS011;10222;50.848;4.336;2024-03-22T02:42:54;34.70;;;17.70;;
20122;SDS011;10222;50.848;4.336;2024-03-22T02:45:21;38.17;;;18.53;;
20122;SDS011;10222;50.848;4.336;2024-03-22T02:47:47;31.20;;;16.87;;
20122;SDS011;10222;50.848;4.336;2024-03-22T02:50:16;35.13;;;17.70;;
20122;SDS011;10222;50.848;4.336;2024-03-22T02:55:13;33.63;;;16.83;;
20122;SDS011;10222;50.848;4.336;2024-03-22T02:57:39;33.70;;;17.47;;
20122;SDS011;10222;50.848;4.336;2024-03-22T03:00:05;37.23;;;18.20;;
20122;SDS011;10222;50.848;4.336;2024-03-22T03:02:32;31.00;;;16.73;;
20122;SDS011;10222;50.848;4.336;2024-03-22T03:04:58;33.03;;;17.47;;
20122;SDS011;10222;50.848;4.336;2024-03-22T03:07:24;32.07;;;16.77;;
20122;SDS011;10222;50.848;4.336;2024-03-22T03:09:50;30.50;;;16.67;;
20122;SDS011;10222;50.848;4.336;2024-03-22T03:12:16;33.90;;;16.83;;
20122;SDS011;10222;50.848;4.336;2024-03-22T03:14:42;31.53;;;16.60;;
20122;SDS011;10222;50.848;4.336;2024-03-22T03:17:08;30.00;;;16.00;;
20122;SDS011;10222;50.848;4.336;2024-03-22T03:19:35;27.13;;;15.53;;
20122;SDS011;10222;50.848;4.336;2024-03-22T03:22:03;32.13;;;16.67;;
20122;SDS011;10222;50.848;4.336;2024-03-22T03:24:29;28.40;;;16.10;;
20122;SDS011;10222;50.848;4.336;2024-03-22T03:26:55;31.33;;;15.83;;
20122;SDS011;10222;50.848;4.336;2024-03-22T03:29:22;29.00;;;16.13;;
20122;SDS011;10222;50.848;4.336;2024-03-22T03:31:48;35.60;;;16.73;;
20122;SDS011;10222;50.848;4.336;2024-03-22T03:34:14;32.73;;;17.17;;
20122;SDS011;10222;50.848;4.336;2024-03-22T03:36:40;27.27;;;14.93;;
20122;SDS011;10222;50.848;4.336;2024-03-22T03:39:06;30.33;;;15.33;;
20122;SDS011;10222;50.848;4.336;2024-03-22T03:41:32;25.33;;;13.33;;
20122;SDS011;10222;50.848;4.336;2024-03-22T03:43:59;28.60;;;15.07;;
20122;SDS011;10222;50.848;4.336;2024-03-22T03:46:25;28.43;;;13.73;;
20122;SDS011;10222;50.848;4.336;2024-03-22T03:48:51;25.87;;;13.00;;
20122;SDS011;10222;50.848;4.336;2024-03-22T03:51:17;24.37;;;12.67;;
20122;SDS011;10222;50.848;4.336;2024-03-22T03:53:43;25.13;;;11.63;;
20122;SDS011;10222;50.848;4.336;2024-03-22T03:56:08;23.27;;;12.27;;
20122;SDS011;10222;50.848;4.336;2024-03-22T03:58:34;22.60;;;12.87;;
20122;SDS011;10222;50.848;4.336;2024-03-22T04:01:07;23.93;;;12.53;;
20122;SDS011;10222;50.848;4.336;2024-03-22T04:03:33;26.27;;;13.23;;
20122;SDS011;10222;50.848;4.336;2024-03-22T04:05:59;21.63;;;12.17;;
20122;SDS011;10222;50.848;4.336;2024-03-22T04:08:26;23.30;;;13.10;;
20122;SDS011;10222;50.848;4.336;2024-03-22T04:10:52;22.93;;;11.57;;
20122;SDS011;10222;50.848;4.336;2024-03-22T04:13:18;22.63;;;11.70;;
20122;SDS011;10222;50.848;4.336;2024-03-22T04:15:45;23.77;;;12.40;;
20122;SDS011;10222;50.848;4.336;2024-03-22T04:18:11;22.40;;;12.00;;
20122;SDS011;10222;50.848;4.336;2024-03-22T04:20:37;19.60;;;11.27;;
20122;SDS011;10222;50.848;4.336;2024-03-22T04:25:32;22.20;;;11.90;;
20122;SDS011;10222;50.848;4.336;2024-03-22T04:27:58;23.97;;;12.40;;
20122;SDS011;10222;50.848;4.336;2024-03-22T04:30:24;22.87;;;10.93;;
20122;SDS011;10222;50.848;4.336;2024-03-22T04:32:50;21.17;;;11.60;;
20122;SDS011;10222;50.848;4.336;2024-03-22T04:35:18;24.37;;;11.53;;
20122;SDS011;10222;50.848;4.336;2024-03-22T04:37:44;19.17;;;11.03;;
20122;SDS011;10222;50.848;4.336;2024-03-22T04:40:10;19.80;;;10.93;;
20122;SDS011;10222;50.848;4.336;2024-03-22T04:42:36;24.30;;;11.23;;
20122;SDS011;10222;50.848;4.336;2024-03-22T04:45:02;22.63;;;12.03;;
20122;SDS011;10222;50.848;4.336;2024-03-22T04:47:28;17.93;;;10.30;;
20122;SDS011;10222;50.848;4.336;2024-03-22T04:49:54;20.03;;;9.97;;
20122;SDS011;10222;50.848;4.336;2024-03-22T04:52:20;19.57;;;10.30;;
20122;SDS011;10222;50.848;4.336;2024-03-22T04:54:46;20.40;;;10.53;;
20122;SDS011;10222;50.848;4.336;2024-03-22T04:57:12;18.37;;;10.03;;
20122;SDS011;10222;50.848;4.336;2024-03-22T04:59:38;17.97;;;10.30;;
20122;SDS011;10222;50.848;4.336;2024-03-22T05:02:04;19.03;;;10.13;;
20122;SDS011;10222;50.848;4.336;2024-03-22T05:04:30;20.97;;;11.53;;
20122;SDS011;10222;50.848;4.336;2024-03-22T05:06:56;21.93;;;10.73;;
20122;SDS011;10222;50.848;4.336;2024-03-22T05:09:22;22.50;;;10.60;;
20122;SDS011;10222;50.848;4.336;2024-03-22T05:11:48;21.70;;;10.37;;
20122;SDS011;10222;50.848;4.336;2024-03-22T05:14:18;22.27;;;10.63;;
20122;SDS011;10222;50.848;4.336;2024-03-22T05:16:45;25.07;;;10.70;;
20122;SDS011;10222;50.848;4.336;2024-03-22T05:19:11;19.33;;;10.37;;
20122;SDS011;10222;50.848;4.336;2024-03-22T05:21:37;21.27;;;10.53;;
20122;SDS011;10222;50.848;4.336;2024-03-22T05:24:03;21.47;;;10.70;;
20122;SDS011;10222;50.848;4.336;2024-03-22T05:26:29;20.60;;;10.13;;
20122;SDS011;10222;50.848;4.336;2024-03-22T05:29:00;24.90;;;10.00;;
20122;SDS011;10222;50.848;4.336;2024-03-22T05:31:30;18.87;;;10.53;;
20122;SDS011;10222;50.848;4.336;2024-03-22T05:33:56;20.93;;;10.00;;
20122;SDS011;10222;50.848;4.336;2024-03-22T05:36:22;18.10;;;10.27;;
20122;SDS011;10222;50.848;4.336;2024-03-22T05:38:48;20.33;;;10.50;;
20122;SDS011;10222;50.848;4.336;2024-03-22T05:41:14;22.73;;;10.60;;
20122;SDS011;10222;50.848;4.336;2024-03-22T05:43:40;18.13;;;9.77;;
20122;SDS011;10222;50.848;4.336;2024-03-22T05:46:07;17.20;;;9.67;;
20122;SDS011;10222;50.848;4.336;2024-03-22T05:48:33;19.83;;;9.53;;
20122;SDS011;10222;50.848;4.336;2024-03-22T05:50:58;19.17;;;10.17;;
20122;SDS011;10222;50.848;4.336;2024-03-22T05:53:24;18.37;;;10.10;;
20122;SDS011;10222;50.848;4.336;2024-03-22T05:55:50;20.33;;;10.50;;
20122;SDS011;10222;50.848;4.336;2024-03-22T05:58:16;20.53;;;11.23;;
20122;SDS011;10222;50.848;4.336;2024-03-22T06:00:43;25.27;;;10.83;;
20122;SDS011;10222;50.848;4.336;2024-03-22T06:03:09;20.67;;;10.70;;
20122;SDS011;10222;50.848;4.336;2024-03-22T06:05:34;21.00;;;10.10;;
20122;SDS011;10222;50.848;4.336;2024-03-22T06:08:01;19.77;;;10.67;;
20122;SDS011;10222;50.848;4.336;2024-03-22T06:10:28;23.83;;;11.90;;
20122;SDS011;10222;50.848;4.336;2024-03-22T06:12:54;26.80;;;11.73;;
20122;SDS011;10222;50.848;4.336;2024-03-22T06:15:21;25.67;;;11.47;;
20122;SDS011;10222;50.848;4.336;2024-03-22T06:17:47;21.93;;;11.17;;
20122;SDS011;10222;50.848;4.336;2024-03-22T06:20:13;21.87;;;11.87;;
20122;SDS011;10222;50.848;4.336;2024-03-22T06:22:39;25.50;;;12.60;;
20122;SDS011;10222;50.848;4.336;2024-03-22T06:25:05;25.30;;;14.02;;
20122;SDS011;10222;50.848;4.336;2024-03-22T06:27:31;25.63;;;12.70;;
20122;SDS011;10222;50.848;4.336;2024-03-22T06:30:00;24.67;;;12.50;;
20122;SDS011;10222;50.848;4.336;2024-03-22T06:32:26;28.40;;;12.57;;
20122;SDS011;10222;50.848;4.336;2024-03-22T06:34:52;23.80;;;11.47;;
20122;SDS011;10222;50.848;4.336;2024-03-22T06:37:18;25.67;;;11.40;;
20122;SDS011;10222;50.848;4.336;2024-03-22T06:39:46;23.77;;;12.33;;
20122;SDS011;10222;50.848;4.336;2024-03-22T06:42:12;22.63;;;11.33;;
20122;SDS011;10222;50.848;4.336;2024-03-22T06:44:38;26.07;;;12.27;;
20122;SDS011;10222;50.848;4.336;2024-03-22T06:47:04;24.40;;;12.63;;
20122;SDS011;10222;50.848;4.336;2024-03-22T06:49:30;23.73;;;10.97;;
20122;SDS011;10222;50.848;4.336;2024-03-22T06:51:56;25.73;;;12.40;;
20122;SDS011;10222;50.848;4.336;2024-03-22T06:54:22;26.53;;;11.67;;
20122;SDS011;10222;50.848;4.336;2024-03-22T06:56:48;22.20;;;11.13;;
20122;SDS011;10222;50.848;4.336;2024-03-22T06:59:14;21.53;;;11.10;;
20122;SDS011;10222;50.848;4.336;2024-03-22T07:01:40;21.57;;;10.83;;
20122;SDS011;10222;50.848;4.336;2024-03-22T07:04:06;20.40;;;10.57;;
20122;SDS011;10222;50.848;4.336;2024-03-22T07:06:32;21.33;;;10.23;;
20122;SDS011;10222;50.848;4.336;2024-03-22T07:08:58;21.57;;;10.07;;
20122;SDS011;10222;50.848;4.336;2024-03-22T07:11:25;23.83;;;10.57;;
20122;SDS011;10222;50.848;4.336;2024-03-22T07:13:51;18.07;;;9.43;;
20122;SDS011;10222;50.848;4.336;2024-03-22T07:16:18;19.13;;;9.00;;
20122;SDS011;10222;50.848;4.336;2024-03-22T07:18:44;16.57;;;9.40;;
20122;SDS011;10222;50.848;4.336;2024-03-22T07:21:10;23.30;;;10.50;;
20122;SDS011;10222;50.848;4.336;2024-03-22T07:23:36;20.50;;;9.77;;
20122;SDS011;10222;50.848;4.336;2024-03-22T07:26:02;20.10;;;10.43;;
20122;SDS011;10222;50.848;4.336;2024-03-22T07:28:30;18.97;;;10.03;;
20122;SDS011;10222;50.848;4.336;2024-03-22T07:30:56;23.83;;;9.77;;
20122;SDS011;10222;50.848;4.336;2024-03-22T07:33:22;20.57;;;10.37;;
20122;SDS011;10222;50.848;4.336;2024-03-22T07:35:48;23.30;;;10.47;;
20122;SDS011;10222;50.848;4.336;2024-03-22T07:38:14;23.70;;;9.80;;
20122;SDS011;10222;50.848;4.336;2024-03-22T07:40:40;17.63;;;8.83;;
20122;SDS011;10222;50.848;4.336;2024-03-22T07:43:07;17.07;;;8.90;;
20122;SDS011;10222;50.848;4.336;2024-03-22T07:45:37;14.67;;;8.10;;
20122;SDS011;10222;50.848;4.336;2024-03-22T07:48:04;15.77;;;8.00;;
20122;SDS011;10222;50.848;4.336;2024-03-22T07:50:30;13.27;;;7.70;;
20122;SDS011;10222;50.848;4.336;2024-03-22T07:52:56;12.83;;;7.60;;
20122;SDS011;10222;50.848;4.336;2024-03-22T07:55:22;12.80;;;7.27;;
20122;SDS011;10222;50.848;4.336;2024-03-22T07:57:48;12.90;;;7.27;;
20122;SDS011;10222;50.848;4.336;2024-03-22T08:00:14;12.10;;;6.87;;
20122;SDS011;10222;50.848;4.336;2024-03-22T08:02:41;13.40;;;7.33;;
20122;SDS011;10222;50.848;4.336;2024-03-22T08:05:08;15.67;;;7.70;;
20122;SDS011;10222;50.848;4.336;2024-03-22T08:07:34;11.37;;;7.07;;
20122;SDS011;10222;50.848;4.336;2024-03-22T08:10:00;13.40;;;7.47;;
20122;SDS011;10222;50.848;4.336;2024-03-22T08:12:27;11.43;;;6.57;;
20122;SDS011;10222;50.848;4.336;2024-03-22T08:14:53;13.70;;;7.60;;
20122;SDS011;10222;50.848;4.336;2024-03-22T08:17:20;12.57;;;7.30;;
20122;SDS011;10222;50.848;4.336;2024-03-22T08:19:47;15.40;;;7.60;;
20122;SDS011;10222;50.848;4.336;2024-03-22T08:22:13;13.90;;;7.80;;
20122;SDS011;10222;50.848;4.336;2024-03-22T08:24:39;15.47;;;8.43;;
20122;SDS011;10222;50.848;4.336;2024-03-22T08:27:05;15.20;;;8.30;;
20122;SDS011;10222;50.848;4.336;2024-03-22T08:29:31;18.10;;;9.30;;
20122;SDS011;10222;50.848;4.336;2024-03-22T08:31:57;18.30;;;9.70;;
20122;SDS011;10222;50.848;4.336;2024-03-22T08:34:23;20.97;;;10.47;;
20122;SDS011;10222;50.848;4.336;2024-03-22T08:36:49;20.63;;;11.20;;
20122;SDS011;10222;50.848;4.336;2024-03-22T08:39:15;23.20;;;11.70;;
20122;SDS011;10222;50.848;4.336;2024-03-22T08:41:42;23.07;;;11.53;;
20122;SDS011;10222;50.848;4.336;2024-03-22T08:44:09;23.27;;;13.00;;
20122;SDS011;10222;50.848;4.336;2024-03-22T08:46:35;21.97;;;12.40;;
20122;SDS011;10222;50.848;4.336;2024-03-22T08:49:01;23.57;;;11.43;;
20122;SDS011;10222;50.848;4.336;2024-03-22T08:51:29;19.37;;;11.60;;
20122;SDS011;10222;50.848;4.336;2024-03-22T08:53:55;22.80;;;12.47;;
20122;SDS011;10222;50.848;4.336;2024-03-22T08:56:21;18.47;;;11.23;;
20122;SDS011;10222;50.848;4.336;2024-03-22T08:58:47;19.43;;;11.60;;
20122;SDS011;10222;50.848;4.336;2024-03-22T09:01:14;20.00;;;11.33;;
20122;SDS011;10222;50.848;4.336;2024-03-22T09:03:41;16.93;;;10.00;;
20122;SDS011;10222;50.848;4.336;2024-03-22T09:06:11;20.47;;;11.63;;
20122;SDS011;10222;50.848;4.336;2024-03-22T09:08:37;17.43;;;10.10;;
20122;SDS011;10222;50.848;4.336;2024-03-22T09:11:03;19.53;;;11.70;;
20122;SDS011;10222;50.848;4.336;2024-03-22T09:13:29;23.63;;;10.23;;
20122;SDS011;10222;50.848;4.336;2024-03-22T09:15:56;18.97;;;10.80;;
20122;SDS011;10222;50.848;4.336;2024-03-22T09:18:22;20.13;;;10.73;;
20122;SDS011;10222;50.848;4.336;2024-03-22T09:20:48;18.50;;;10.37;;
20122;SDS011;10222;50.848;4.336;2024-03-22T09:23:14;18.90;;;10.83;;
20122;SDS011;10222;50.848;4.336;2024-03-22T09:25:40;18.67;;;11.67;;
20122;SDS011;10222;50.848;4.336;2024-03-22T09:28:06;21.67;;;11.30;;
20122;SDS011;10222;50.848;4.336;2024-03-22T09:30:32;20.70;;;11.10;;
20122;SDS011;10222;50.848;4.336;2024-03-22T09:32:58;20.00;;;11.37;;
20122;SDS011;10222;50.848;4.336;2024-03-22T09:35:24;17.90;;;10.53;;
20122;SDS011;10222;50.848;4.336;2024-03-22T09:37:51;18.57;;;10.27;;
20122;SDS011;10222;50.848;4.336;2024-03-22T09:40:19;17.50;;;10.13;;
20122;SDS011;10222;50.848;4.336;2024-03-22T09:42:45;18.43;;;10.80;;
20122;SDS011;10222;50.848;4.336;2024-03-22T09:45:14;16.53;;;10.37;;
20122;SDS011;10222;50.848;4.336;2024-03-22T09:47:43;23.00;;;11.00;;
20122;SDS011;10222;50.848;4.336;2024-03-22T09:50:10;18.23;;;10.43;;
20122;SDS011;10222;50.848;4.336;2024-03-22T09:52:37;19.30;;;10.73;;
20122;SDS011;10222;50.848;4.336;2024-03-22T09:55:05;21.70;;;11.80;;
20122;SDS011;10222;50.848;4.336;2024-03-22T09:57:31;19.93;;;11.00;;
20122;SDS011;10222;50.848;4.336;2024-03-22T09:59:57;17.87;;;10.43;;
20122;SDS011;10222;50.848;4.336;2024-03-22T10:02:23;16.50;;;10.03;;
20122;SDS011;10222;50.848;4.336;2024-03-22T10:04:51;19.20;;;11.03;;
20122;SDS011;10222;50.848;4.336;2024-03-22T10:07:17;21.33;;;10.80;;
20122;SDS011;10222;50.848;4.336;2024-03-22T10:09:43;19.73;;;10.43;;
20122;SDS011;10222;50.848;4.336;2024-03-22T10:12:09;17.17;;;10.60;;
20122;SDS011;10222;50.848;4.336;2024-03-22T10:14:37;17.83;;;10.33;;
20122;SDS011;10222;50.848;4.336;2024-03-22T10:17:07;23.63;;;11.57;;
20122;SDS011;10222;50.848;4.336;2024-03-22T10:19:33;20.60;;;10.30;;
20122;SDS011;10222;50.848;4.336;2024-03-22T10:22:05;20.07;;;10.83;;
20122;SDS011;10222;50.848;4.336;2024-03-22T10:24:31;20.07;;;11.37;;
20122;SDS011;10222;50.848;4.336;2024-03-22T10:26:58;19.03;;;10.30;;
20122;SDS011;10222;50.848;4.336;2024-03-22T10:29:24;18.50;;;10.23;;
20122;SDS011;10222;50.848;4.336;2024-03-22T10:31:51;18.43;;;10.93;;
20122;SDS011;10222;50.848;4.336;2024-03-22T10:34:18;16.10;;;10.30;;
20122;SDS011;10222;50.848;4.336;2024-03-22T10:36:48;16.17;;;10.60;;
20122;SDS011;10222;50.848;4.336;2024-03-22T10:39:18;19.17;;;10.53;;
20122;SDS011;10222;50.848;4.336;2024-03-22T10:41:47;18.73;;;10.40;;
20122;SDS011;10222;50.848;4.336;2024-03-22T10:44:13;19.00;;;10.30;;
20122;SDS011;10222;50.848;4.336;2024-03-22T10:46:43;20.93;;;10.43;;
20122;SDS011;10222;50.848;4.336;2024-03-22T10:49:20;18.37;;;10.53;;
20122;SDS011;10222;50.848;4.336;2024-03-22T10:51:48;16.53;;;9.77;;
20122;SDS011;10222;50.848;4.336;2024-03-22T10:54:17;17.00;;;10.33;;
20122;SDS011;10222;50.848;4.336;2024-03-22T10:56:44;20.03;;;10.20;;
20122;SDS011;10222;50.848;4.336;2024-03-22T10:59:13;18.43;;;11.03;;
20122;SDS011;10222;50.848;4.336;2024-03-22T11:01:39;20.50;;;11.50;;
20122;SDS011;10222;50.848;4.336;2024-03-22T11:04:06;20.93;;;11.00;;
20122;SDS011;10222;50.848;4.336;2024-03-22T11:06:34;19.03;;;10.53;;
20122;SDS011;10222;50.848;4.336;2024-03-22T11:09:02;24.57;;;11.83;;
20122;SDS011;10222;50.848;4.336;2024-03-22T11:11:31;23.90;;;12.03;;
20122;SDS011;10222;50.848;4.336;2024-03-22T11:14:03;20.13;;;11.37;;
20122;SDS011;10222;50.848;4.336;2024-03-22T11:16:29;16.17;;;10.60;;
20122;SDS011;10222;50.848;4.336;2024-03-22T11:18:57;16.93;;;10.13;;
20122;SDS011;10222;50.848;4.336;2024-03-22T11:21:25;18.67;;;9.23;;
20122;SDS011;10222;50.848;4.336;2024-03-22T11:23:51;15.73;;;9.10;;
20122;SDS011;10222;50.848;4.336;2024-03-22T11:26:19;15.10;;;8.97;;
20122;SDS011;10222;50.848;4.336;2024-03-22T11:28:56;17.27;;;9.20;;
20122;SDS011;10222;50.848;4.336;2024-03-22T11:31:22;17.73;;;9.77;;
20122;SDS011;10222;50.848;4.336;2024-03-22T11:33:52;16.03;;;9.43;;
20122;SDS011;10222;50.848;4.336;2024-03-22T11:36:18;14.97;;;9.10;;
20122;SDS011;10222;50.848;4.336;2024-03-22T11:38:45;16.90;;;8.83;;
20122;SDS011;10222;50.848;4.336;2024-03-22T11:41:14;18.83;;;9.40;;
20122;SDS011;10222;50.848;4.336;2024-03-22T11:43:42;16.20;;;8.47;;
20122;SDS011;10222;50.848;4.336;2024-03-22T11:46:08;18.57;;;9.00;;
20122;SDS011;10222;50.848;4.336;2024-03-22T11:48:38;17.83;;;8.50;;
20122;SDS011;10222;50.848;4.336;2024-03-22T11:51:04;14.93;;;9.03;;
20122;SDS011;10222;50.848;4.336;2024-03-22T11:53:31;18.93;;;9.13;;
20122;SDS011;10222;50.848;4.336;2024-03-22T11:55:57;16.03;;;8.83;;
20122;SDS011;10222;50.848;4.336;2024-03-22T11:58:26;19.83;;;8.60;;
20122;SDS011;10222;50.848;4.336;2024-03-22T12:00:52;17.03;;;8.73;;
20122;SDS011;10222;50.848;4.336;2024-03-22T12:03:18;14.20;;;9.13;;
20122;SDS011;10222;50.848;4.336;2024-03-22T12:05:44;12.73;;;8.77;;
20122;SDS011;10222;50.848;4.336;2024-03-22T12:08:10;15.13;;;9.53;;
20122;SDS011;10222;50.848;4.336;2024-03-22T12:10:36;14.73;;;9.20;;
20122;SDS011;10222;50.848;4.336;2024-03-22T12:13:02;21.73;;;8.70;;
20122;SDS011;10222;50.848;4.336;2024-03-22T12:15:29;14.33;;;8.47;;
20122;SDS011;10222;50.848;4.336;2024-03-22T12:18:26;14.00;;;7.83;;
20122;SDS011;10222;50.848;4.336;2024-03-22T12:20:52;18.20;;;7.83;;
20122;SDS011;10222;50.848;4.336;2024-03-22T12:23:18;11.53;;;6.87;;
20122;SDS011;10222;50.848;4.336;2024-03-22T12:25:44;13.50;;;6.70;;
20122;SDS011;10222;50.848;4.336;2024-03-22T12:28:10;13.67;;;6.57;;
20122;SDS011;10222;50.848;4.336;2024-03-22T12:30:36;13.43;;;7.40;;
20122;SDS011;10222;50.848;4.336;2024-03-22T12:33:02;14.10;;;7.50;;
20122;SDS011;10222;50.848;4.336;2024-03-22T12:35:30;11.63;;;7.47;;
20122;SDS011;10222;50.848;4.336;2024-03-22T12:37:57;17.40;;;6.67;;
20122;SDS011;10222;50.848;4.336;2024-03-22T12:40:24;15.00;;;7.80;;
20122;SDS011;10222;50.848;4.336;2024-03-22T12:42:50;12.77;;;7.00;;
20122;SDS011;10222;50.848;4.336;2024-03-22T12:45:16;15.77;;;6.80;;
20122;SDS011;10222;50.848;4.336;2024-03-22T12:47:42;14.60;;;6.43;;
20122;SDS011;10222;50.848;4.336;2024-03-22T12:50:09;13.80;;;6.33;;
20122;SDS011;10222;50.848;4.336;2024-03-22T12:52:38;12.50;;;6.70;;
20122;SDS011;10222;50.848;4.336;2024-03-22T12:55:04;14.87;;;7.00;;
20122;SDS011;10222;50.848;4.336;2024-03-22T12:57:31;11.33;;;6.57;;
20122;SDS011;10222;50.848;4.336;2024-03-22T12:59:57;12.33;;;6.70;;
20122;SDS011;10222;50.848;4.336;2024-03-22T13:02:23;10.03;;;6.37;;
20122;SDS011;10222;50.848;4.336;2024-03-22T13:04:52;16.77;;;6.37;;
20122;SDS011;10222;50.848;4.336;2024-03-22T13:07:19;10.63;;;5.73;;
20122;SDS011;10222;50.848;4.336;2024-03-22T13:09:45;10.33;;;6.00;;
20122;SDS011;10222;50.848;4.336;2024-03-22T13:12:11;10.10;;;5.77;;
20122;SDS011;10222;50.848;4.336;2024-03-22T13:14:37;11.63;;;5.57;;
20122;SDS011;10222;50.848;4.336;2024-03-22T13:17:03;12.87;;;5.67;;
20122;SDS011;10222;50.848;4.336;2024-03-22T13:19:29;13.17;;;6.07;;
20122;SDS011;10222;50.848;4.336;2024-03-22T13:21:55;11.30;;;5.83;;
20122;SDS011;10222;50.848;4.336;2024-03-22T13:24:21;9.87;;;5.33;;
20122;SDS011;10222;50.848;4.336;2024-03-22T13:26:47;15.97;;;6.33;;
20122;SDS011;10222;50.848;4.336;2024-03-22T13:29:13;15.37;;;6.27;;
20122;SDS011;10222;50.848;4.336;2024-03-22T13:31:39;13.57;;;5.97;;
20122;SDS011;10222;50.848;4.336;2024-03-22T13:34:05;13.53;;;5.73;;
20122;SDS011;10222;50.848;4.336;2024-03-22T13:36:31;11.30;;;6.60;;
20122;SDS011;10222;50.848;4.336;2024-03-22T13:38:58;10.97;;;6.40;;
20122;SDS011;10222;50.848;4.336;2024-03-22T13:41:26;14.13;;;6.30;;
20122;SDS011;10222;50.848;4.336;2024-03-22T13:43:52;14.70;;;5.80;;
20122;SDS011;10222;50.848;4.336;2024-03-22T13:46:18;10.20;;;6.00;;
20122;SDS011;10222;50.848;4.336;2024-03-22T13:48:45;14.27;;;5.97;;
20122;SDS011;10222;50.848;4.336;2024-03-22T13:51:11;12.33;;;5.83;;
20122;SDS011;10222;50.848;4.336;2024-03-22T13:53:37;12.83;;;6.13;;
20122;SDS011;10222;50.848;4.336;2024-03-22T13:56:03;9.87;;;5.97;;
20122;SDS011;10222;50.848;4.336;2024-03-22T13:58:29;15.90;;;6.53;;
20122;SDS011;10222;50.848;4.336;2024-03-22T14:00:55;17.33;;;6.80;;
20122;SDS011;10222;50.848;4.336;2024-03-22T14:03:21;9.37;;;5.63;;
20122;SDS011;10222;50.848;4.336;2024-03-22T14:05:47;13.67;;;6.13;;
20122;SDS011;10222;50.848;4.336;2024-03-22T14:08:13;8.80;;;4.93;;
20122;SDS011;10222;50.848;4.336;2024-03-22T14:10:39;11.50;;;4.80;;
20122;SDS011;10222;50.848;4.336;2024-03-22T14:13:05;13.17;;;5.20;;
20122;SDS011;10222;50.848;4.336;2024-03-22T14:15:33;16.87;;;5.37;;
20122;SDS011;10222;50.848;4.336;2024-03-22T14:18:01;9.03;;;5.00;;
20122;SDS011;10222;50.848;4.336;2024-03-22T14:20:28;8.27;;;4.97;;
20122;SDS011;10222;50.848;4.336;2024-03-22T14:22:54;9.23;;;5.70;;
20122;SDS011;10222;50.848;4.336;2024-03-22T14:25:20;13.40;;;5.40;;
20122;SDS011;10222;50.848;4.336;2024-03-22T14:27:46;11.53;;;5.57;;
20122;SDS011;10222;50.848;4.336;2024-03-22T14:30:14;10.67;;;5.13;;
20122;SDS011;10222;50.848;4.336;2024-03-22T14:32:40;10.33;;;5.13;;
20122;SDS011;10222;50.848;4.336;2024-03-22T14:35:06;11.57;;;5.50;;
20122;SDS011;10222;50.848;4.336;2024-03-22T14:37:33;9.57;;;5.47;;
20122;SDS011;10222;50.848;4.336;2024-03-22T14:39:59;16.13;;;5.57;;